Time;durP1;ratioP1;P1;durP2;ratioP2;P2;SDS_P1;SDS_P2;PMS_P1;PMS_P2;Temp;Humidity;BMP_temperature;BMP_pressure;BME280_temperature;BME280_humidity;BME280_pressure;Samples;Min_cycle;Max_cycle;Signal;HPM_P1;HPM_P2
2021/06/15 00:00:37;;;;;;;4.62;3.57;;;;;;;20.64;67.00;100402.72;461325;111;924014;-67
2021/06/15 00:01:41;;;;;;;6.36;3.49;;;;;;;20.64;67.00;100402.72;462641;113;924395;-64
2021/06/15 00:02:46;;;;;;;3.88;2.94;;;;;;;20.65;67.14;100401.61;461667;113;925387;-68
2021/06/15 00:03:51;;;;;;;4.83;3.41;;;;;;;20.66;67.19;100402.44;461506;111;930488;-68
2021/06/15 00:04:56;;;;;;;4.21;3.13;;;;;;;20.67;67.27;100406.87;455692;113;924009;-64
2021/06/15 00:06:04;;;;;;;6.69;3.35;;;;;;;20.68;67.34;100403.79;445766;115;923515;-65
2021/06/15 00:07:11;;;;;;;4.92;3.37;;;;;;;20.69;67.29;100399.91;446834;115;923053;-65
2021/06/15 00:08:16;;;;;;;4.82;4.39;;;;;;;20.72;67.12;100402.13;455353;113;923131;-65
2021/06/15 00:09:26;;;;;;;4.36;4.02;;;;;;;20.74;66.99;100404.59;456715;113;924316;-66
2021/06/15 00:10:32;;;;;;;4.79;4.37;;;;;;;20.74;66.83;100401.81;454253;113;926021;-64
2021/06/15 00:11:37;;;;;;;4.06;3.62;;;;;;;20.74;66.86;100399.87;455257;114;931940;-66
2021/06/15 00:12:42;;;;;;;4.59;3.78;;;;;;;20.75;66.91;100401.55;454972;113;922482;-65
2021/06/15 00:13:46;;;;;;;4.15;3.85;;;;;;;20.73;66.83;100398.22;456241;113;923036;-64
2021/06/15 00:14:51;;;;;;;4.41;4.02;;;;;;;20.71;66.80;100396.86;454434;113;922594;-65
2021/06/15 00:15:54;;;;;;;4.28;3.82;;;;;;;20.70;66.81;100403.52;461547;113;930466;-66
2021/06/15 00:16:58;;;;;;;5.82;3.55;;;;;;;20.68;66.79;100403.79;461567;112;923056;-68
2021/06/15 00:18:04;;;;;;;4.14;3.54;;;;;;;20.66;66.67;100402.44;462167;113;922693;-64
2021/06/15 00:19:07;;;;;;;5.76;3.86;;;;;;;20.64;66.72;100402.72;460725;113;922438;-65
2021/06/15 00:20:14;;;;;;;5.96;4.02;;;;;;;20.62;66.81;100409.67;455032;113;922978;-64
2021/06/15 00:21:18;;;;;;;5.10;3.64;;;;;;;20.59;66.87;100397.20;453783;113;923539;-67
2021/06/15 00:22:21;;;;;;;5.51;3.85;;;;;;;20.57;66.93;100401.36;455121;113;922375;-65
2021/06/15 00:23:26;;;;;;;5.02;4.29;;;;;;;20.54;66.98;100402.77;454817;113;922498;-66
2021/06/15 00:24:30;;;;;;;8.07;3.58;;;;;;;20.51;67.03;100402.52;454950;113;922934;-64
2021/06/15 00:25:33;;;;;;;4.71;3.44;;;;;;;20.48;67.15;100408.62;454657;113;922613;-64
2021/06/15 00:26:37;;;;;;;4.54;3.85;;;;;;;20.44;67.25;100402.00;447708;115;922514;-65
2021/06/15 00:27:42;;;;;;;4.12;3.69;;;;;;;20.39;67.36;100411.16;441064;117;923384;-65
2021/06/15 00:28:47;;;;;;;4.48;3.77;;;;;;;20.34;67.46;100400.91;436279;119;923241;-64
2021/06/15 00:29:51;;;;;;;4.19;3.71;;;;;;;20.30;67.66;100396.20;429317;120;926298;-63
2021/06/15 00:30:56;;;;;;;6.03;3.88;;;;;;;20.26;67.85;100400.66;441112;117;922737;-66
2021/06/15 00:32:01;;;;;;;6.69;4.00;;;;;;;20.23;68.03;100402.03;440824;116;931149;-64
2021/06/15 00:33:06;;;;;;;4.36;3.66;;;;;;;20.20;68.17;100402.61;440825;116;922547;-66
2021/06/15 00:34:11;;;;;;;5.27;3.80;;;;;;;20.19;68.31;100408.42;441489;116;922478;-65
2021/06/15 00:35:15;;;;;;;4.39;4.06;;;;;;;20.18;68.40;100404.02;448033;114;922926;-66
2021/06/15 00:36:20;;;;;;;10.78;5.11;;;;;;;20.16;68.50;100407.06;454719;114;922527;-66
2021/06/15 00:37:25;;;;;;;6.13;3.81;;;;;;;20.16;68.64;100411.77;431467;117;923184;-67
2021/06/15 00:38:29;;;;;;;5.46;4.31;;;;;;;20.15;68.75;100407.34;443231;117;922571;-66
2021/06/15 00:39:34;;;;;;;5.06;3.94;;;;;;;20.16;68.87;100409.00;439428;117;924509;-66
2021/06/15 00:40:41;;;;;;;4.02;3.72;;;;;;;20.17;68.92;100411.50;442957;117;924777;-66
2021/06/15 00:41:45;;;;;;;4.46;4.05;;;;;;;20.19;68.88;100408.42;443278;117;924816;-65
2021/06/15 00:42:52;;;;;;;5.11;3.92;;;;;;;20.20;68.88;100402.61;438291;117;922578;-65
2021/06/15 00:43:56;;;;;;;4.24;3.76;;;;;;;20.21;68.93;100409.81;434580;118;924440;-65
2021/06/15 00:45:08;;;;;;;4.42;3.98;;;;;;;20.22;68.83;100405.11;439703;117;924090;-64
2021/06/15 00:46:15;;;;;;;5.30;4.58;;;;;;;20.21;68.83;100408.98;439164;119;922720;-67
2021/06/15 00:47:22;;;;;;;7.07;4.00;;;;;;;20.20;68.80;100402.61;439333;117;925730;-64
2021/06/15 00:48:33;;;;;;;7.07;4.46;;;;;;;20.17;68.79;100399.59;439106;117;922709;-66
2021/06/15 00:49:39;;;;;;;4.35;3.93;;;;;;;20.15;68.83;100399.03;439794;117;932593;-66
2021/06/15 00:50:45;;;;;;;5.04;3.96;;;;;;;20.13;68.91;100396.54;439891;117;924307;-66
2021/06/15 00:51:51;;;;;;;5.61;4.12;;;;;;;20.11;68.95;100397.95;440123;118;924585;-65
2021/06/15 00:52:57;;;;;;;4.47;4.06;;;;;;;20.10;68.97;100401.83;440677;117;923910;-67
2021/06/15 00:54:03;;;;;;;4.80;4.40;;;;;;;20.09;68.99;100397.39;444679;117;924133;-65
2021/06/15 00:55:08;;;;;;;4.16;3.81;;;;;;;20.07;69.11;100405.97;453338;113;924452;-66
2021/06/15 00:56:15;;;;;;;4.66;3.89;;;;;;;20.05;69.21;100405.44;445874;115;925088;-66
2021/06/15 00:57:22;;;;;;;4.99;4.56;;;;;;;20.04;69.32;100405.72;447808;115;924099;-66
2021/06/15 00:58:27;;;;;;;5.21;4.03;;;;;;;20.02;69.39;100405.98;446574;115;922663;-66
2021/06/15 00:59:31;;;;;;;4.59;4.20;;;;;;;20.01;69.51;100409.89;446855;115;923157;-66
2021/06/15 01:00:38;;;;;;;4.69;3.99;;;;;;;20.00;69.65;100405.46;446203;115;924006;-65
2021/06/15 01:01:47;;;;;;;4.83;3.94;;;;;;;20.01;69.74;100406.29;447194;115;923422;-66
2021/06/15 01:02:52;;;;;;;5.23;4.46;;;;;;;20.02;69.68;100403.22;439785;117;926184;-65
2021/06/15 01:03:57;;;;;;;7.55;4.01;;;;;;;20.02;69.63;100410.69;441695;117;923202;-65
2021/06/15 01:05:03;;;;;;;4.98;4.34;;;;;;;19.99;69.62;100410.16;446543;115;924709;-66
2021/06/15 01:06:16;;;;;;;4.80;4.32;;;;;;;19.97;69.61;100406.84;446613;115;922677;-66
2021/06/15 01:07:27;;;;;;;5.22;4.49;;;;;;;19.97;69.70;100406.84;445855;115;923889;-65
2021/06/15 01:08:43;;;;;;;7.37;6.61;;;;;;;19.97;69.80;100409.61;453185;115;922650;-65
2021/06/15 01:09:52;;;;;;;5.60;5.09;;;;;;;19.96;69.73;100416.24;450320;115;924580;-64
2021/06/15 01:11:23;;;;;;;6.35;5.17;;;;;;;19.94;69.69;100420.42;445945;116;926536;-66
2021/06/15 01:12:45;;;;;;;8.53;4.49;;;;;;;19.91;69.70;100416.26;446696;115;924031;-64
2021/06/15 01:14:11;;;;;;;8.43;4.29;;;;;;;19.88;69.83;100419.59;447041;115;924021;-66
2021/06/15 01:15:31;;;;;;;4.77;4.32;;;;;;;19.86;70.01;100418.20;437988;117;924100;-66
2021/06/15 01:16:54;;;;;;;5.59;4.42;;;;;;;19.83;69.99;100410.48;446085;115;924093;-66
2021/06/15 01:18:04;;;;;;;5.40;4.28;;;;;;;19.80;70.03;100413.79;447313;115;922593;-67
2021/06/15 01:19:33;;;;;;;4.36;3.97;;;;;;;19.78;70.11;100416.86;446945;115;922434;-66
2021/06/15 01:20:48;;;;;;;6.12;4.26;;;;;;;19.75;70.24;100411.87;437524;119;922766;-66
2021/06/15 01:22:11;;;;;;;6.32;5.06;;;;;;;19.76;70.49;100413.53;447182;115;923070;-66
2021/06/15 01:23:37;;;;;;;6.14;4.07;;;;;;;19.78;70.65;100414.09;440688;116;922640;-65
2021/06/15 01:24:49;;;;;;;5.01;4.01;;;;;;;19.80;70.67;100417.39;445304;115;924025;-65
2021/06/15 01:26:01;;;;;;;6.15;4.54;;;;;;;19.83;70.61;100410.48;443901;115;925098;-66
2021/06/15 01:27:11;;;;;;;4.52;3.89;;;;;;;19.84;70.57;100415.75;446000;115;923102;-66
2021/06/15 01:28:23;;;;;;;4.94;4.38;;;;;;;19.84;70.41;100418.52;441727;117;923218;-65
2021/06/15 01:29:38;;;;;;;5.69;4.24;;;;;;;19.82;70.35;100419.88;450088;115;923098;-65
2021/06/15 01:31:07;;;;;;;4.48;3.91;;;;;;;19.79;70.26;100414.92;451357;115;922484;-65
2021/06/15 01:32:17;;;;;;;5.19;4.69;;;;;;;19.77;70.33;100414.36;445874;115;923626;-64
2021/06/15 01:33:24;;;;;;;7.11;4.51;;;;;;;19.75;70.50;100422.10;447202;115;922357;-66
2021/06/15 01:34:35;;;;;;;5.36;4.87;;;;;;;19.75;70.61;100427.63;447961;115;922711;-65
2021/06/15 01:35:41;;;;;;;6.13;4.47;;;;;;;19.75;70.70;100416.56;446217;115;923001;-64
2021/06/15 01:36:53;;;;;;;5.10;3.81;;;;;;;19.74;70.64;100412.97;447546;115;922733;-66
2021/06/15 01:38:08;;;;;;;6.59;4.19;;;;;;;19.74;70.62;100417.67;438532;119;922714;-66
2021/06/15 01:39:18;;;;;;;5.50;4.33;;;;;;;19.73;70.69;100416.87;445226;115;922930;-66
2021/06/15 01:40:43;;;;;;;4.91;4.44;;;;;;;19.72;70.61;100408.84;453120;113;924437;-66
2021/06/15 01:42:01;;;;;;;5.00;4.47;;;;;;;19.68;70.60;100408.58;450847;115;922542;-64
2021/06/15 01:43:12;;;;;;;4.92;4.41;;;;;;;19.65;70.67;100405.52;447302;115;922904;-65
2021/06/15 01:44:20;;;;;;;7.17;5.04;;;;;;;19.62;70.77;100406.09;440322;117;926647;-67
2021/06/15 01:45:30;;;;;;;8.54;4.37;;;;;;;19.58;70.92;100400.27;440552;117;923929;-64
2021/06/15 01:46:54;;;;;;;8.27;4.87;;;;;;;19.54;71.02;100397.24;446827;115;925424;-66
2021/06/15 01:48:06;;;;;;;10.56;5.02;;;;;;;19.52;71.17;100398.62;446482;115;924617;-67
2021/06/15 01:49:14;;;;;;;5.24;4.68;;;;;;;19.50;71.34;100390.63;446789;115;922839;-65
2021/06/15 01:50:22;;;;;;;4.62;4.19;;;;;;;19.51;71.53;100397.81;445809;115;923830;-66
2021/06/15 01:51:27;;;;;;;6.69;4.01;;;;;;;19.54;71.66;100396.41;447186;115;923930;-65
2021/06/15 01:52:35;;;;;;;8.36;4.70;;;;;;;19.56;71.67;100400.58;446472;115;922508;-65
2021/06/15 01:53:57;;;;;;;8.26;4.96;;;;;;;19.60;71.71;100388.94;445754;115;924471;-65
2021/06/15 01:55:18;;;;;;;4.44;3.96;;;;;;;19.64;71.69;100392.80;445093;115;924564;-65
2021/06/15 01:56:30;;;;;;;7.64;4.68;;;;;;;19.68;71.58;100393.92;446053;115;924035;-65
2021/06/15 01:57:36;;;;;;;7.24;4.12;;;;;;;19.72;71.41;100384.77;448337;115;924694;-65
2021/06/15 01:58:43;;;;;;;5.15;3.98;;;;;;;19.74;71.32;100390.01;453093;115;923973;-65
2021/06/15 01:59:51;;;;;;;6.56;4.67;;;;;;;19.76;71.23;100385.87;450407;117;922865;-66
2021/06/15 02:00:56;;;;;;;13.83;6.14;;;;;;;19.79;71.19;100387.26;444086;117;924723;-65
2021/06/15 02:02:05;;;;;;;6.14;5.44;;;;;;;19.81;71.09;100396.09;447333;115;925566;-66
2021/06/15 02:03:11;;;;;;;6.43;4.79;;;;;;;19.83;70.88;100385.58;446607;115;925969;-66
2021/06/15 02:04:18;;;;;;;4.52;4.14;;;;;;;19.85;70.65;100386.11;446073;115;924727;-66
2021/06/15 02:05:32;;;;;;;6.28;4.61;;;;;;;19.88;70.43;100383.63;447864;115;924319;-66
2021/06/15 02:06:42;;;;;;;5.21;4.44;;;;;;;19.89;70.21;100385.29;437018;117;923558;-66
2021/06/15 02:07:50;;;;;;;5.64;4.81;;;;;;;19.91;70.03;100379.45;437906;117;922999;-65
2021/06/15 02:08:58;;;;;;;5.47;4.93;;;;;;;19.91;69.93;100379.45;446415;115;923139;-66
2021/06/15 02:10:18;;;;;;;5.04;4.48;;;;;;;19.92;69.92;100372.81;447603;115;922705;-66
2021/06/15 02:11:34;;;;;;;5.88;4.58;;;;;;;19.91;69.89;100376.69;446489;115;922388;-69
2021/06/15 02:12:49;;;;;;;5.04;4.57;;;;;;;19.87;69.87;100370.89;440306;119;924522;-66
2021/06/15 02:14:04;;;;;;;5.77;3.98;;;;;;;19.85;69.94;100372.27;444576;115;924050;-65
2021/06/15 02:15:15;;;;;;;12.43;5.41;;;;;;;19.81;70.05;100380.31;448816;115;923900;-67
2021/06/15 02:16:39;;;;;;;6.21;4.56;;;;;;;19.79;70.19;100388.05;445680;115;925939;-64
2021/06/15 02:17:57;;;;;;;8.27;4.37;;;;;;;19.77;70.31;100379.23;447090;115;922521;-65
2021/06/15 02:19:10;;;;;;;6.06;4.74;;;;;;;19.75;70.38;100395.27;450731;113;923087;-65
2021/06/15 02:20:20;;;;;;;9.08;5.16;;;;;;;19.75;70.41;100394.44;445121;117;924072;-65
2021/06/15 02:21:28;;;;;;;8.18;5.27;;;;;;;19.72;70.41;100395.84;446695;115;922974;-65
2021/06/15 02:22:33;;;;;;;6.03;4.98;;;;;;;19.70;70.45;100400.81;447297;115;922953;-65
2021/06/15 02:23:43;;;;;;;4.81;4.27;;;;;;;19.69;70.44;100395.55;447176;115;922383;-66
2021/06/15 02:24:57;;;;;;;6.92;4.45;;;;;;;19.67;70.54;100395.02;446134;115;922540;-66
2021/06/15 02:26:08;;;;;;;8.76;4.66;;;;;;;19.65;70.58;100388.92;447257;115;922479;-64
2021/06/15 02:27:17;;;;;;;9.34;5.10;;;;;;;19.62;70.63;100379.27;439292;117;922633;-63
2021/06/15 02:28:22;;;;;;;10.80;4.79;;;;;;;19.60;70.60;100380.64;447013;115;922500;-65
2021/06/15 02:29:28;;;;;;;11.15;5.18;;;;;;;19.57;70.67;100380.08;453790;115;922486;-66
2021/06/15 02:30:34;;;;;;;10.61;5.09;;;;;;;19.55;70.71;100378.72;445422;115;922596;-66
2021/06/15 02:31:52;;;;;;;6.86;4.92;;;;;;;19.53;70.84;100367.92;439356;117;922603;-65
2021/06/15 02:33:14;;;;;;;5.98;4.37;;;;;;;19.65;70.97;100377.86;477092;108;934812;-65
2021/06/15 02:34:21;;;;;;;6.15;4.32;;;;;;;19.55;70.97;100367.66;467998;111;924695;-65
2021/06/15 02:35:27;;;;;;;9.97;5.75;;;;;;;19.54;71.04;100372.36;469240;110;922737;-65
2021/06/15 02:36:37;;;;;;;16.80;6.53;;;;;;;19.54;71.10;100369.59;471505;109;923997;-64
2021/06/15 02:37:47;;;;;;;7.55;5.17;;;;;;;19.53;71.13;100365.16;452245;113;931682;-65
2021/06/15 02:38:57;;;;;;;9.24;5.31;;;;;;;19.53;71.13;100359.63;469179;110;922370;-66
2021/06/15 02:40:06;;;;;;;8.76;5.34;;;;;;;19.52;71.14;100366.27;469258;109;924372;-65
2021/06/15 02:41:13;;;;;;;8.59;5.51;;;;;;;19.52;71.22;100366.27;469860;109;924913;-66
2021/06/15 02:42:19;;;;;;;8.49;5.74;;;;;;;19.53;71.38;100358.80;469951;111;922430;-63
2021/06/15 02:43:26;;;;;;;10.96;5.21;;;;;;;19.56;71.45;100361.02;472556;109;925980;-66
2021/06/15 02:44:33;;;;;;;13.16;5.22;;;;;;;19.59;71.57;100357.69;470794;110;923998;-64
2021/06/15 02:45:40;;;;;;;9.53;4.72;;;;;;;19.64;71.67;100356.84;461331;112;922522;-67
2021/06/15 02:46:48;;;;;;;11.47;4.72;;;;;;;19.68;71.59;100361.55;462897;109;923484;-65
2021/06/15 02:47:55;;;;;;;4.62;4.23;;;;;;;19.72;71.51;100354.34;471175;110;924177;-65
2021/06/15 02:49:03;;;;;;;6.78;4.79;;;;;;;19.77;71.41;100357.09;471053;109;922616;-65
2021/06/15 02:50:11;;;;;;;4.72;3.95;;;;;;;19.82;71.27;100359.84;471421;109;922475;-65
2021/06/15 02:51:16;;;;;;;4.66;4.12;;;;;;;19.88;71.05;100357.89;469151;110;922535;-66
2021/06/15 02:52:36;;;;;;;6.36;4.24;;;;;;;19.94;70.78;100357.59;469644;110;925075;-68
2021/06/15 02:53:48;;;;;;;5.68;3.83;;;;;;;19.99;70.63;100362.28;470661;109;924011;-63
2021/06/15 02:55:02;;;;;;;5.71;4.57;;;;;;;20.04;70.56;100359.49;471344;109;925276;-65
2021/06/15 02:56:17;;;;;;;5.37;4.50;;;;;;;20.08;70.46;100355.05;470330;109;922904;-63
2021/06/15 02:57:24;;;;;;;6.38;4.37;;;;;;;20.13;70.35;100354.19;468780;110;925460;-64
2021/06/15 02:58:30;;;;;;;5.39;4.42;;;;;;;20.16;70.30;100346.16;469439;110;924406;-65
2021/06/15 02:59:36;;;;;;;6.11;4.24;;;;;;;20.17;70.21;100349.77;469739;109;924046;-65
2021/06/15 03:00:42;;;;;;;7.02;5.19;;;;;;;20.17;70.09;100347.00;470379;109;923993;-64
2021/06/15 03:01:52;;;;;;;6.22;4.77;;;;;;;20.16;69.98;100351.70;470354;110;924031;-65
2021/06/15 03:02:58;;;;;;;7.99;4.50;;;;;;;20.18;69.90;100351.42;471605;110;923872;-69
2021/06/15 03:04:04;;;;;;;6.06;4.17;;;;;;;20.18;70.02;100349.45;471696;110;926195;-63
2021/06/15 03:05:10;;;;;;;7.55;5.08;;;;;;;20.19;70.12;100345.58;469945;110;923991;-66
2021/06/15 03:06:14;;;;;;;6.58;4.88;;;;;;;20.23;70.20;100345.86;470371;109;932568;-65
2021/06/15 03:07:24;;;;;;;6.71;4.50;;;;;;;20.25;70.17;100336.14;471796;109;924362;-65
2021/06/15 03:08:40;;;;;;;7.36;4.70;;;;;;;20.28;70.10;100346.66;470046;111;924270;-63
2021/06/15 03:09:45;;;;;;;6.82;5.11;;;;;;;20.30;70.08;100340.81;471432;109;932001;-67
2021/06/15 03:10:51;;;;;;;5.89;5.40;;;;;;;20.32;70.12;100344.17;469407;110;922768;-65
2021/06/15 03:12:02;;;;;;;9.42;6.06;;;;;;;20.34;69.92;100359.37;469700;111;923384;-65
2021/06/15 03:13:14;;;;;;;9.77;5.22;;;;;;;20.37;69.74;100352.45;470670;109;926594;-65
2021/06/15 03:14:24;;;;;;;10.02;5.46;;;;;;;20.38;69.66;100349.41;470868;109;923151;-67
2021/06/15 03:15:44;;;;;;;11.57;5.33;;;;;;;20.42;69.53;100355.19;470471;110;922659;-65
2021/06/15 03:16:57;;;;;;;5.49;4.39;;;;;;;20.46;69.46;100358.20;469190;109;922501;-66
2021/06/15 03:18:15;;;;;;;4.75;4.33;;;;;;;20.49;69.39;100354.88;470714;109;923078;-65
2021/06/15 03:19:46;;;;;;;;;;;;;;;20.49;69.28;100355.72;473213;109;925959;-65
2021/06/15 03:20:53;;;;;;;;;;;;;;;20.51;69.13;100356.23;473148;110;921606;-65
2021/06/15 03:22:11;;;;;;;8.73;4.39;;;;;;;20.51;69.11;100347.93;469086;110;922604;-64
2021/06/15 03:23:36;;;;;;;8.31;5.53;;;;;;;20.51;69.05;100349.90;470673;111;923911;-65
2021/06/15 03:24:46;;;;;;;5.47;4.60;;;;;;;20.51;68.95;100347.93;471328;109;924782;-62
2021/06/15 03:25:54;;;;;;;6.63;4.37;;;;;;;20.52;68.87;100354.30;460625;111;922864;-63
2021/06/15 03:27:07;;;;;;;5.99;5.26;;;;;;;20.53;68.81;100356.80;462171;111;922791;-65
2021/06/15 03:28:16;;;;;;;6.41;4.31;;;;;;;20.55;68.82;100351.80;470397;110;922608;-66
2021/06/15 03:29:24;;;;;;;6.11;3.85;;;;;;;20.58;68.85;100351.22;469879;109;922895;-65
2021/06/15 03:30:30;;;;;;;9.14;3.62;;;;;;;20.62;68.81;100351.49;470339;110;925540;-65
2021/06/15 03:31:41;;;;;;;4.04;3.58;;;;;;;20.65;68.64;100348.97;471363;110;923020;-66
2021/06/15 03:32:55;;;;;;;4.88;3.92;;;;;;;20.68;68.63;100350.31;470238;110;922665;-63
2021/06/15 03:34:02;;;;;;;6.22;3.76;;;;;;;20.72;68.54;100355.02;464829;111;922473;-65
2021/06/15 03:35:09;;;;;;;5.93;4.29;;;;;;;20.76;68.59;100344.18;468947;109;922554;-66
2021/06/15 03:36:18;;;;;;;13.46;3.70;;;;;;;20.79;68.44;100349.13;470071;110;922917;-63
2021/06/15 03:37:26;;;;;;;6.21;3.97;;;;;;;20.81;68.35;100352.45;470256;110;924076;-66
2021/06/15 03:38:34;;;;;;;7.98;3.86;;;;;;;20.83;68.27;100355.78;471839;110;923470;-66
2021/06/15 03:39:40;;;;;;;4.06;3.31;;;;;;;20.85;68.30;100352.70;470050;110;925136;-66
2021/06/15 03:40:49;;;;;;;4.13;3.07;;;;;;;20.88;68.21;100355.73;470910;110;922588;-66
2021/06/15 03:41:56;;;;;;;5.93;3.37;;;;;;;20.91;68.15;100346.00;470207;110;922510;-64
2021/06/15 03:43:02;;;;;;;3.25;3.05;;;;;;;20.93;68.12;100344.61;469336;110;924402;-64
2021/06/15 03:44:08;;;;;;;4.63;3.34;;;;;;;20.94;68.08;100346.27;469679;110;924291;-65
2021/06/15 03:45:13;;;;;;;4.55;4.03;;;;;;;20.97;68.12;100342.91;468622;110;922930;-65
2021/06/15 03:46:23;;;;;;;8.54;4.23;;;;;;;20.99;68.20;100345.40;470618;109;924485;-66
2021/06/15 03:47:38;;;;;;;8.22;3.95;;;;;;;21.02;68.13;100353.13;474837;110;924026;-65
2021/06/15 03:49:13;;;;;;;3.93;3.03;;;;;;;21.05;68.10;100349.79;461719;112;924138;-66
2021/06/15 03:50:18;;;;;;;5.01;3.44;;;;;;;21.08;68.08;100347.25;467678;109;922515;-65
2021/06/15 03:51:29;;;;;;;5.91;3.18;;;;;;;21.11;68.11;100355.01;469748;111;924715;-67
2021/06/15 03:52:42;;;;;;;4.33;3.38;;;;;;;21.25;68.03;100349.64;471748;110;951953;-68
2021/06/15 03:54:06;;;;;;;5.28;3.46;;;;;;;21.18;68.02;100347.20;462302;113;924074;-66
2021/06/15 03:57:07;;;;;;;5.73;3.48;;;;;;;21.25;67.96;100355.19;451799;115;925612;-67
2021/06/15 03:58:14;;;;;;;4.32;2.90;;;;;;;21.30;67.70;100349.59;452039;113;924091;-67
2021/06/15 03:59:22;;;;;;;5.29;3.31;;;;;;;21.32;67.67;100354.85;463264;113;925323;-65
2021/06/15 04:00:31;;;;;;;4.09;3.38;;;;;;;21.35;67.67;100351.48;461801;113;924695;-65
2021/06/15 04:01:39;;;;;;;3.18;2.91;;;;;;;21.37;67.63;100352.03;464050;113;923869;-65
2021/06/15 04:02:48;;;;;;;3.46;2.84;;;;;;;21.40;67.61;100348.66;463162;113;922654;-65
2021/06/15 04:03:52;;;;;;;3.88;3.19;;;;;;;21.43;67.67;100356.41;463704;113;922533;-67
2021/06/15 04:04:58;;;;;;;6.76;3.38;;;;;;;21.46;67.50;100355.81;463789;113;923091;-66
2021/06/15 04:06:05;;;;;;;5.39;3.28;;;;;;;21.49;67.23;100358.85;462693;113;924500;-66
2021/06/15 04:07:15;;;;;;;3.92;3.32;;;;;;;21.51;67.01;100353.82;463001;113;923960;-67
2021/06/15 04:08:21;;;;;;;3.47;3.10;;;;;;;21.54;66.77;100355.20;462805;113;924066;-66
2021/06/15 04:09:31;;;;;;;3.92;2.88;;;;;;;21.57;66.57;100357.37;461753;113;925249;-65
2021/06/15 04:10:38;;;;;;;3.57;2.98;;;;;;;21.58;66.50;100357.09;462626;113;922609;-67
2021/06/15 04:11:45;;;;;;;3.69;2.87;;;;;;;21.62;66.37;100357.31;452494;115;923046;-66
2021/06/15 04:12:52;;;;;;;4.08;3.17;;;;;;;21.64;66.28;100361.47;453599;113;922501;-66
2021/06/15 04:13:57;;;;;;;4.53;3.42;;;;;;;21.67;66.12;100362.81;462016;113;923059;-68
2021/06/15 04:15:03;;;;;;;7.35;3.26;;;;;;;21.70;66.06;100361.41;461317;113;922994;-66
2021/06/15 04:16:12;;;;;;;4.04;2.86;;;;;;;21.72;65.99;100364.73;462399;113;922789;-66
2021/06/15 04:17:25;;;;;;;3.32;3.03;;;;;;;21.76;65.94;100360.23;462739;113;922906;-67
2021/06/15 04:18:31;;;;;;;4.27;3.29;;;;;;;21.81;65.98;100363.78;462440;113;922936;-64
2021/06/15 04:19:47;;;;;;;6.02;3.04;;;;;;;21.84;65.92;100359.58;451528;115;923153;-67
2021/06/15 04:20:54;;;;;;;3.80;2.89;;;;;;;21.87;65.68;100364.55;455578;113;922529;-67
2021/06/15 04:22:02;;;;;;;5.41;3.07;;;;;;;21.88;65.72;100364.27;462609;113;922655;-63
2021/06/15 04:23:11;;;;;;;3.45;3.18;;;;;;;21.90;65.59;100369.50;464638;113;922563;-66
2021/06/15 04:24:20;;;;;;;5.63;3.73;;;;;;;21.91;65.29;100363.66;453294;115;923302;-65
2021/06/15 04:25:35;;;;;;;5.59;3.06;;;;;;;21.94;65.13;100367.81;454029;113;923966;-66
2021/06/15 04:26:43;;;;;;;3.62;3.29;;;;;;;21.96;65.06;100373.91;462834;113;922580;-67
2021/06/15 04:27:49;;;;;;;5.10;2.96;;;;;;;21.98;65.02;100368.91;463721;113;923809;-67
2021/06/15 04:28:54;;;;;;;4.23;2.86;;;;;;;22.02;64.99;100369.95;453409;115;922696;-65
2021/06/15 04:30:00;;;;;;;3.37;3.05;;;;;;;22.04;65.05;100373.28;444418;116;922501;-65
2021/06/15 04:31:05;;;;;;;2.97;2.67;;;;;;;22.07;65.09;100369.89;452831;114;922579;-65
2021/06/15 04:32:11;;;;;;;4.03;3.44;;;;;;;22.10;65.11;100374.88;463439;113;922297;-67
2021/06/15 04:33:18;;;;;;;4.78;3.24;;;;;;;22.13;65.15;100376.21;462807;113;922712;-67
2021/06/15 04:34:25;;;;;;;5.86;3.31;;;;;;;22.15;65.18;100372.03;463795;113;922619;-67
2021/06/15 04:35:39;;;;;;;5.18;3.29;;;;;;;22.17;65.23;100368.94;462181;113;922562;-67
2021/06/15 04:36:45;;;;;;;5.00;3.14;;;;;;;22.20;65.39;100380.30;463210;113;922503;-66
2021/06/15 04:37:50;;;;;;;4.77;3.42;;;;;;;22.22;65.44;100374.45;462123;113;922776;-66
2021/06/15 04:39:04;;;;;;;6.63;3.82;;;;;;;22.26;65.36;100375.50;462672;113;922552;-66
2021/06/15 04:40:16;;;;;;;9.92;3.14;;;;;;;22.28;64.99;100378.80;463119;113;926358;-67
2021/06/15 04:41:30;;;;;;;3.93;2.96;;;;;;;22.30;64.91;100382.11;462617;113;922680;-68
2021/06/15 04:42:46;;;;;;;5.23;3.63;;;;;;;22.31;64.83;100380.99;463278;113;922696;-68
2021/06/15 04:44:09;;;;;;;5.29;3.64;;;;;;;22.44;64.85;100385.80;470238;110;946858;-64
2021/06/15 04:45:14;;;;;;;7.43;3.61;;;;;;;22.33;64.95;100378.72;464079;113;925132;-68
2021/06/15 04:46:22;;;;;;;5.73;3.47;;;;;;;22.35;65.01;100374.54;463161;113;922913;-66
2021/06/15 04:47:29;;;;;;;6.34;3.52;;;;;;;22.38;64.81;100384.24;463833;114;922844;-66
2021/06/15 04:48:34;;;;;;;6.55;3.34;;;;;;;22.40;64.27;100384.75;456510;113;922810;-66
2021/06/15 04:50:06;;;;;;;5.75;3.46;;;;;;;22.42;63.95;100382.52;454936;115;923142;-67
2021/06/15 04:51:12;;;;;;;5.27;3.53;;;;;;;22.43;63.82;100379.45;455837;116;924067;-66
2021/06/15 04:52:19;;;;;;;5.01;3.71;;;;;;;22.45;63.72;100379.95;455413;116;924097;-67
2021/06/15 04:53:23;;;;;;;3.71;3.38;;;;;;;22.47;63.63;100376.89;450789;107;922936;-64
2021/06/15 04:54:36;;;;;;;4.49;3.28;;;;;;;22.48;63.38;100378.55;441026;116;922516;-65
2021/06/15 04:55:40;;;;;;;3.52;3.21;;;;;;;22.50;63.38;100373.50;440363;119;922563;-64
2021/06/15 04:56:49;;;;;;;3.58;3.28;;;;;;;22.52;63.33;100378.77;433556;119;922715;-63
2021/06/15 04:57:55;;;;;;;3.94;3.54;;;;;;;22.53;63.38;100378.47;434681;118;922649;-63
2021/06/15 04:59:03;;;;;;;4.96;3.68;;;;;;;22.55;63.51;100373.42;440058;116;923103;-64
2021/06/15 05:00:08;;;;;;;4.18;3.53;;;;;;;22.58;63.53;100370.06;442161;118;922772;-65
2021/06/15 05:01:14;;;;;;;6.58;3.09;;;;;;;22.61;63.48;100369.45;442450;117;922545;-63
2021/06/15 05:02:20;;;;;;;6.87;4.06;;;;;;;22.64;63.36;100368.87;442612;118;930535;-67
2021/06/15 05:03:23;;;;;;;10.26;3.58;;;;;;;22.66;63.25;100369.37;443137;117;924334;-65
2021/06/15 05:04:27;;;;;;;7.57;3.56;;;;;;;22.69;63.02;100366.02;443313;118;925309;-64
2021/06/15 05:05:32;;;;;;;5.51;3.45;;;;;;;22.71;62.95;100371.28;442585;118;924114;-65
2021/06/15 05:06:40;;;;;;;6.14;3.34;;;;;;;22.73;62.99;100374.59;441906;118;924799;-67
2021/06/15 05:07:44;;;;;;;3.56;3.09;;;;;;;22.75;63.04;100375.13;444249;118;924052;-64
2021/06/15 05:08:55;;;;;;;4.02;3.07;;;;;;;22.77;63.02;100365.35;443892;119;924102;-63
2021/06/15 05:10:04;;;;;;;7.34;3.19;;;;;;;22.80;63.09;100366.72;443099;118;923317;-66
2021/06/15 05:11:09;;;;;;;3.61;3.22;;;;;;;22.82;63.05;100372.81;441952;117;924022;-64
2021/06/15 05:12:14;;;;;;;3.61;3.12;;;;;;;22.84;62.96;100368.59;442014;118;923947;-64
2021/06/15 05:13:18;;;;;;;5.54;3.16;;;;;;;22.88;62.79;100368.00;441889;117;925652;-64
2021/06/15 05:14:32;;;;;;;6.10;2.93;;;;;;;22.91;62.55;100371.00;442828;118;932041;-64
2021/06/15 05:15:41;;;;;;;3.25;2.98;;;;;;;22.93;62.24;100365.97;442229;117;924113;-65
2021/06/15 05:16:44;;;;;;;9.96;3.33;;;;;;;22.95;61.94;100360.09;441163;118;922810;-65
2021/06/15 05:17:50;;;;;;;4.76;3.08;;;;;;;22.97;61.89;100369.80;441645;117;925951;-64
2021/06/15 05:18:54;;;;;;;4.49;3.34;;;;;;;23.01;61.79;100367.22;441379;118;924568;-68
2021/06/15 05:19:58;;;;;;;5.38;3.14;;;;;;;23.03;61.69;100360.24;442761;118;922918;-66
2021/06/15 05:21:11;;;;;;;4.81;2.87;;;;;;;23.07;61.55;100363.23;442550;118;932020;-65